Maria — SV7156 — position and weather

sailwx.info

Track history (hours):
 
Tides and Currents Weather Stations Pressure Air Temp Water Temp Dewpoint Dewpoint Depression Visibility Wind Speed Wind Dir Waves Ship Positions

Maria

Last reported at 2016-Sep-01 01:33 UTC. Time now 2016-Sep-01 01:58 UTC.
Position N 37°54' E 023°33'.

Length 74 m; draft 4.5 m.

Type: Ship. MMSI: 237493000.

Date/timePositionNaut miles runAvg speedWind from/ knotsBaromVisibWave heightAir tempDewpointWater temp
2016-Sep-01 01:33N 37°54' E 023°33'7 6.9
2016-Sep-01 00:33N 37°51' E 023°25'7 7.2
2016-Aug-31 23:31N 37°53' E 023°15'7 6.7
2016-Aug-31 22:32N 37°54' E 023°07'2 1.6
2016-Aug-31 21:33N 37°55' E 023°05'0 0.0
2016-Aug-31 20:33N 37°55' E 023°05'0 0.0
2016-Aug-31 19:33N 37°55' E 023°05'0 0.0
2016-Aug-31 18:33N 37°55' E 023°05'0 0.0
2016-Aug-31 17:33N 37°55' E 023°05'0 0.0
2016-Aug-31 16:33N 37°55' E 023°05'0 0.0
2016-Aug-31 15:33N 37°55' E 023°05'0 0.4
2016-Aug-31 14:33N 37°55' E 023°05'0 0.4
2016-Aug-31 13:33N 37°55' E 023°05'0 0.0
2016-Aug-31 12:34N 37°55' E 023°05'0 0.0
2016-Aug-31 11:33N 37°55' E 023°05'8 3.9
2016-Aug-31 09:33N 37°54' E 023°14'7 6.8
2016-Aug-31 08:33N 37°53' E 023°23'6 6.4
2016-Aug-31 07:33N 37°53' E 023°31'5 5.1
2016-Aug-31 06:33N 37°58' E 023°35'  
2016-Aug-25 07:19N 37°58' E 023°35'0 0.0
2016-Aug-23 22:16N 37°58' E 023°35'2 3.0
2016-Aug-23 21:34N 37°56' E 023°34'4 3.9
2016-Aug-23 20:34N 37°52' E 023°33'0 0.1
2016-Aug-23 19:34N 37°52' E 023°32'0 0.0
2016-Aug-23 18:33N 37°52' E 023°32'0 0.1
2016-Aug-23 17:34N 37°52' E 023°32'0 0.0
2016-Aug-23 16:33N 37°52' E 023°32'1 0.8
2016-Aug-23 15:33N 37°53' E 023°32'1 1.1
2016-Aug-23 14:34N 37°54' E 023°32'0 0.1
2016-Aug-23 13:34N 37°54' E 023°32'1 0.7
2016-Aug-23 12:33N 37°54' E 023°33'4 3.7
2016-Aug-23 11:34N 37°58' E 023°35'0 0.0
2016-Aug-23 10:34N 37°58' E 023°35'0 0.0
2016-Aug-23 09:33N 37°58' E 023°35'0 0.0
2016-Aug-23 08:33N 37°58' E 023°35'0 0.0
2016-Aug-23 07:34N 37°58' E 023°35'0 0.0
2016-Aug-22 10:34N 37°58' E 023°35'0 0.0
2016-Aug-22 06:33N 37°58' E 023°35'0 0.1
2016-Aug-22 05:33N 37°58' E 023°35'  
Track history (hours):
 
Tides and Currents Weather Stations Pressure Air Temp Water Temp Dewpoint Dewpoint Depression Visibility Wind Speed Wind Dir Waves Ship Positions

Maria

Last reported at 2016-Sep-01 01:33 UTC. Time now 2016-Sep-01 01:58 UTC.
Position N 37°54' E 023°33'.

Length 74 m; draft 4.5 m.

Type: Ship. MMSI: 237493000.

Date/timePositionNaut miles runAvg speedWind from/ knotsBaromVisibWave heightAir tempDewpointWater temp
2016-Sep-01 01:33N 37°54' E 023°33'7 6.9
2016-Sep-01 00:33N 37°51' E 023°25'7 7.2
2016-Aug-31 23:31N 37°53' E 023°15'7 6.7
2016-Aug-31 22:32N 37°54' E 023°07'2 1.6
2016-Aug-31 21:33N 37°55' E 023°05'0 0.0
2016-Aug-31 20:33N 37°55' E 023°05'0 0.0
2016-Aug-31 19:33N 37°55' E 023°05'0 0.0
2016-Aug-31 18:33N 37°55' E 023°05'0 0.0
2016-Aug-31 17:33N 37°55' E 023°05'0 0.0
2016-Aug-31 16:33N 37°55' E 023°05'0 0.0
2016-Aug-31 15:33N 37°55' E 023°05'0 0.4
2016-Aug-31 14:33N 37°55' E 023°05'0 0.4
2016-Aug-31 13:33N 37°55' E 023°05'0 0.0
2016-Aug-31 12:34N 37°55' E 023°05'0 0.0
2016-Aug-31 11:33N 37°55' E 023°05'8 3.9
2016-Aug-31 09:33N 37°54' E 023°14'7 6.8
2016-Aug-31 08:33N 37°53' E 023°23'6 6.4
2016-Aug-31 07:33N 37°53' E 023°31'5 5.1
2016-Aug-31 06:33N 37°58' E 023°35'  
2016-Aug-25 07:19N 37°58' E 023°35'0 0.0
2016-Aug-23 22:16N 37°58' E 023°35'2 3.0
2016-Aug-23 21:34N 37°56' E 023°34'4 3.9
2016-Aug-23 20:34N 37°52' E 023°33'0 0.1
2016-Aug-23 19:34N 37°52' E 023°32'0 0.0
2016-Aug-23 18:33N 37°52' E 023°32'0 0.1
2016-Aug-23 17:34N 37°52' E 023°32'0 0.0
2016-Aug-23 16:33N 37°52' E 023°32'1 0.8
2016-Aug-23 15:33N 37°53' E 023°32'1 1.1
2016-Aug-23 14:34N 37°54' E 023°32'0 0.1
2016-Aug-23 13:34N 37°54' E 023°32'1 0.7
2016-Aug-23 12:33N 37°54' E 023°33'4 3.7
2016-Aug-23 11:34N 37°58' E 023°35'0 0.0
2016-Aug-23 10:34N 37°58' E 023°35'0 0.0
2016-Aug-23 09:33N 37°58' E 023°35'0 0.0
2016-Aug-23 08:33N 37°58' E 023°35'0 0.0
2016-Aug-23 07:34N 37°58' E 023°35'0 0.0
2016-Aug-22 10:34N 37°58' E 023°35'0 0.0
2016-Aug-22 06:33N 37°58' E 023°35'0 0.1
2016-Aug-22 05:33N 37°58' E 023°35'  

Dump ship's entire track history